Time;durP1;ratioP1;P1;durP2;ratioP2;P2;SDS_P1;SDS_P2;PMS_P1;PMS_P2;Temp;Humidity;BMP_temperature;BMP_pressure;BME280_temperature;BME280_humidity;BME280_pressure;Samples;Min_cycle;Max_cycle;Signal;HPM_P1;HPM_P2
2021/06/03 00:02:28;;;;;;;9.85;4.20;;;;;;;;;;8302249;28;20390;-65
2021/06/03 00:06:33;;;;;;;9.52;4.45;;;;;;;;;;8323595;28;20356;-65
2021/06/03 00:10:50;;;;;;;9.02;4.88;;;;;;;;;;8324001;28;20378;-65
2021/06/03 00:14:54;;;;;;;7.55;4.47;;;;;;;;;;8325701;28;20378;-66
2021/06/03 00:19:00;;;;;;;8.15;4.28;;;;;;;;;;8326328;28;20367;-64
2021/06/03 00:23:05;;;;;;;8.20;4.45;;;;;;;;;;8323588;28;20362;-65
2021/06/03 00:27:10;;;;;;;7.68;4.15;;;;;;;;;;8323965;28;20391;-65
2021/06/03 00:31:15;;;;;;;9.90;4.28;;;;;;;;;;8323210;28;20478;-65
2021/06/03 00:35:20;;;;;;;10.82;4.85;;;;;;;;;;8322103;28;20455;-65
2021/06/03 00:39:25;;;;;;;8.32;4.78;;;;;;;;;;8325414;28;20078;-65
2021/06/03 00:43:30;;;;;;;12.95;4.65;;;;;;;;;;8325006;28;20470;-65
2021/06/03 00:47:36;;;;;;;9.98;4.72;;;;;;;;;;8323245;28;20359;-64
2021/06/03 00:51:41;;;;;;;7.90;4.45;;;;;;;;;;8322210;28;20378;-65
2021/06/03 00:55:53;;;;;;;9.95;5.38;;;;;;;;;;8339132;28;20397;-65
2021/06/03 01:00:00;;;;;;;10.85;4.88;;;;;;;;;;8321473;28;20070;-65
2021/06/03 01:04:13;;;;;;;7.07;3.95;;;;;;;;;;8337513;28;20471;-65
2021/06/03 01:08:23;;;;;;;8.15;4.25;;;;;;;;;;8321320;28;20367;-65
2021/06/03 01:12:53;;;;;;;9.82;5.22;;;;;;;;;;8327872;28;20066;-65
2021/06/03 01:17:00;;;;;;;7.95;4.53;;;;;;;;;;8331336;28;20092;-64
2021/06/03 01:21:38;;;;;;;11.82;4.65;;;;;;;;;;8327826;28;20044;-65
2021/06/03 01:25:47;;;;;;;12.65;4.20;;;;;;;;;;8324987;28;20475;-64
2021/06/03 01:30:11;;;;;;;8.95;4.43;;;;;;;;;;8312274;28;20474;-64
2021/06/03 01:34:17;;;;;;;11.13;4.22;;;;;;;;;;8329024;28;20478;-64
2021/06/03 01:38:30;;;;;;;11.93;4.78;;;;;;;;;;8330423;28;20477;-65
2021/06/03 01:42:37;;;;;;;8.18;4.13;;;;;;;;;;8328716;28;20358;-65
2021/06/03 01:46:42;;;;;;;6.53;4.35;;;;;;;;;;8312003;28;20062;-65
2021/06/03 01:50:49;;;;;;;8.07;4.00;;;;;;;;;;8326406;28;20457;-65
2021/06/03 01:54:55;;;;;;;9.02;4.05;;;;;;;;;;8329901;28;20344;-66
2021/06/03 01:59:00;;;;;;;11.68;3.83;;;;;;;;;;8327554;28;20455;-65
2021/06/03 02:03:05;;;;;;;11.70;4.28;;;;;;;;;;8326953;28;20375;-65
2021/06/03 02:07:12;;;;;;;10.38;4.20;;;;;;;;;;8325826;28;20052;-65
2021/06/03 02:11:18;;;;;;;7.57;3.88;;;;;;;;;;8326100;28;20066;-66
2021/06/03 02:15:28;;;;;;;10.68;4.20;;;;;;;;;;8326875;28;20040;-64
2021/06/03 02:19:46;;;;;;;12.02;4.28;;;;;;;;;;8310204;28;20463;-65
2021/06/03 02:23:52;;;;;;;5.82;4.15;;;;;;;;;;8325104;28;20423;-65
2021/06/03 02:27:59;;;;;;;10.23;3.78;;;;;;;;;;8325123;28;20458;-64
2021/06/03 02:32:05;;;;;;;8.32;4.35;;;;;;;;;;8325546;28;20048;-65
2021/06/03 02:36:14;;;;;;;7.28;4.03;;;;;;;;;;8326510;28;20459;-65
2021/06/03 02:40:27;;;;;;;7.93;3.95;;;;;;;;;;8325630;28;20463;-64
2021/06/03 02:44:38;;;;;;;6.72;3.58;;;;;;;;;;8341470;28;20382;-65
2021/06/03 02:48:43;;;;;;;12.07;4.93;;;;;;;;;;8325777;28;20540;-65
2021/06/03 02:52:48;;;;;;;8.82;4.60;;;;;;;;;;8326283;28;20573;-65
2021/06/03 02:56:56;;;;;;;8.32;3.97;;;;;;;;;;8324937;28;20386;-65
2021/06/03 03:01:03;;;;;;;11.02;4.10;;;;;;;;;;8324732;28;20485;-65
2021/06/03 03:05:09;;;;;;;7.05;4.00;;;;;;;;;;8324907;28;20332;-65
2021/06/03 03:09:15;;;;;;;7.55;3.78;;;;;;;;;;8323686;28;20056;-64
2021/06/03 03:13:20;;;;;;;10.57;3.78;;;;;;;;;;8327347;28;20367;-65
2021/06/03 03:17:25;;;;;;;7.75;3.78;;;;;;;;;;8325501;28;20513;-65
2021/06/03 03:21:33;;;;;;;9.25;3.35;;;;;;;;;;8323560;28;20459;-65
2021/06/03 03:25:38;;;;;;;9.15;3.90;;;;;;;;;;8324097;28;20461;-65
2021/06/03 03:29:43;;;;;;;6.22;3.47;;;;;;;;;;8325076;28;20479;-65
2021/06/03 03:33:49;;;;;;;6.32;3.13;;;;;;;;;;8323803;28;20052;-64
2021/06/03 03:37:55;;;;;;;7.78;3.33;;;;;;;;;;8323259;28;20469;-65
2021/06/03 03:42:00;;;;;;;6.13;3.08;;;;;;;;;;8326318;28;20477;-65
2021/06/03 03:46:06;;;;;;;6.70;4.15;;;;;;;;;;8324540;28;20371;-64
2021/06/03 03:50:17;;;;;;;8.82;3.33;;;;;;;;;;8323695;28;20379;-65
2021/06/03 03:54:22;;;;;;;7.15;3.13;;;;;;;;;;8327182;28;20328;-65
2021/06/03 03:58:27;;;;;;;5.57;3.10;;;;;;;;;;8323159;28;20466;-65
2021/06/03 04:02:32;;;;;;;7.65;3.10;;;;;;;;;;8323905;28;20351;-65
2021/06/03 04:06:40;;;;;;;6.82;3.15;;;;;;;;;;8322457;28;20360;-65
2021/06/03 04:10:45;;;;;;;5.30;2.55;;;;;;;;;;8321709;28;20474;-66
2021/06/03 04:14:51;;;;;;;4.45;2.95;;;;;;;;;;8338970;28;20518;-65
2021/06/03 04:18:55;;;;;;;4.60;2.78;;;;;;;;;;8323784;28;20078;-65
2021/06/03 04:23:04;;;;;;;5.95;2.72;;;;;;;;;;8323655;28;20091;-65
2021/06/03 04:27:11;;;;;;;8.20;2.47;;;;;;;;;;8322775;28;20450;-65
2021/06/03 04:31:16;;;;;;;5.38;2.80;;;;;;;;;;8323308;28;20394;-65
2021/06/03 04:35:22;;;;;;;7.40;2.97;;;;;;;;;;8323764;28;20387;-65
2021/06/03 04:39:28;;;;;;;3.75;2.50;;;;;;;;;;8322665;28;20481;-65
2021/06/03 04:43:33;;;;;;;6.55;2.85;;;;;;;;;;8322435;28;20435;-65
2021/06/03 04:47:38;;;;;;;4.43;2.40;;;;;;;;;;8322915;28;20048;-65
2021/06/03 04:51:44;;;;;;;4.97;2.63;;;;;;;;;;8323242;28;20052;-65
2021/06/03 04:55:49;;;;;;;6.07;2.58;;;;;;;;;;8323407;28;20347;-66
2021/06/03 04:59:54;;;;;;;4.47;2.33;;;;;;;;;;8325029;28;20355;-65
2021/06/03 05:04:00;;;;;;;4.72;2.42;;;;;;;;;;8322668;28;20437;-66
2021/06/03 05:08:07;;;;;;;6.90;2.13;;;;;;;;;;8322552;28;20044;-65
2021/06/03 05:12:12;;;;;;;5.28;1.77;;;;;;;;;;8322013;28;20459;-66
2021/06/03 05:16:17;;;;;;;5.30;2.00;;;;;;;;;;8324786;28;20497;-65
2021/06/03 05:20:25;;;;;;;1.85;1.20;;;;;;;;;;8322742;28;20347;-66
2021/06/03 05:24:30;;;;;;;9.05;1.83;;;;;;;;;;8322632;28;20504;-66
2021/06/03 05:28:35;;;;;;;4.32;1.35;;;;;;;;;;8322753;28;20355;-65
2021/06/03 05:32:41;;;;;;;2.80;1.10;;;;;;;;;;8321740;28;20708;-66
2021/06/03 05:36:46;;;;;;;2.50;0.98;;;;;;;;;;8323288;28;20359;-65
2021/06/03 05:40:51;;;;;;;1.55;1.38;;;;;;;;;;8321645;28;20367;-66
2021/06/03 05:44:56;;;;;;;4.53;1.33;;;;;;;;;;8323802;28;20372;-66
2021/06/03 05:49:01;;;;;;;5.38;1.30;;;;;;;;;;8321360;28;20496;-66
2021/06/03 05:53:06;;;;;;;5.60;1.42;;;;;;;;;;8321571;28;20103;-66
2021/06/03 05:57:10;;;;;;;4.20;1.27;;;;;;;;;;8325121;28;20067;-66
2021/06/03 06:01:15;;;;;;;1.35;0.93;;;;;;;;;;8327970;28;20375;-67
2021/06/03 06:09:46;;;;;;;2.25;1.17;;;;;;;;;;8330545;28;20470;-66
2021/06/03 06:13:52;;;;;;;5.82;1.80;;;;;;;;;;8329322;28;20454;-65
2021/06/03 06:17:58;;;;;;;3.33;1.30;;;;;;;;;;8326874;28;20451;-66
2021/06/03 06:22:04;;;;;;;4.22;1.27;;;;;;;;;;8329278;28;20459;-66
2021/06/03 06:26:10;;;;;;;4.45;1.90;;;;;;;;;;8327291;28;20459;-67
2021/06/03 06:30:16;;;;;;;4.70;1.50;;;;;;;;;;8327635;28;20367;-67
2021/06/03 06:34:21;;;;;;;2.10;1.30;;;;;;;;;;8326338;28;20359;-67
2021/06/03 06:38:27;;;;;;;2.83;1.33;;;;;;;;;;8326526;28;20401;-66
2021/06/03 06:42:34;;;;;;;2.42;1.13;;;;;;;;;;8326702;28;20477;-66
2021/06/03 06:46:38;;;;;;;3.43;1.60;;;;;;;;;;8324840;28;20052;-66
2021/06/03 06:50:45;;;;;;;3.47;1.33;;;;;;;;;;8325564;28;20052;-67
2021/06/03 06:54:50;;;;;;;4.20;1.63;;;;;;;;;;8325235;28;20351;-66
2021/06/03 06:58:56;;;;;;;3.72;1.40;;;;;;;;;;8326640;28;20375;-67
2021/06/03 07:03:01;;;;;;;4.85;1.30;;;;;;;;;;8327187;28;20378;-66
2021/06/03 07:07:06;;;;;;;2.03;1.10;;;;;;;;;;8325416;28;20355;-66
2021/06/03 07:11:11;;;;;;;9.23;1.25;;;;;;;;;;8325413;28;20405;-66
2021/06/03 07:15:16;;;;;;;4.53;1.33;;;;;;;;;;8325788;28;20451;-66
2021/06/03 07:19:21;;;;;;;4.40;1.40;;;;;;;;;;8327948;28;20040;-66
2021/06/03 07:23:25;;;;;;;1.65;0.90;;;;;;;;;;8325149;28;20481;-67
2021/06/03 07:27:30;;;;;;;3.70;1.02;;;;;;;;;;8325356;28;20060;-67
2021/06/03 07:31:35;;;;;;;4.35;1.17;;;;;;;;;;8323907;28;20409;-67
2021/06/03 07:35:39;;;;;;;2.13;1.00;;;;;;;;;;8324131;28;20332;-69
2021/06/03 07:39:44;;;;;;;2.65;1.05;;;;;;;;;;8327810;28;20052;-67
2021/06/03 07:43:49;;;;;;;3.30;1.00;;;;;;;;;;8326136;28;20386;-67
2021/06/03 07:47:56;;;;;;;1.27;0.70;;;;;;;;;;8324066;28;20371;-66
2021/06/03 07:52:02;;;;;;;2.20;1.08;;;;;;;;;;8323677;28;20396;-67
2021/06/03 07:56:08;;;;;;;2.50;1.10;;;;;;;;;;8325700;28;20494;-67
2021/06/03 08:00:16;;;;;;;3.80;1.00;;;;;;;;;;8323565;28;20360;-66
2021/06/03 08:04:21;;;;;;;4.80;1.33;;;;;;;;;;8325668;28;20378;-67
2021/06/03 08:08:26;;;;;;;2.88;1.17;;;;;;;;;;8324567;28;20366;-66
2021/06/03 08:12:31;;;;;;;3.60;1.00;;;;;;;;;;8323840;28;20462;-67
2021/06/03 08:16:36;;;;;;;1.88;0.90;;;;;;;;;;8323767;28;20378;-67
2021/06/03 08:20:47;;;;;;;1.35;0.75;;;;;;;;;;8324176;28;20347;-66
2021/06/03 08:24:51;;;;;;;1.08;0.90;;;;;;;;;;8321978;28;20462;-67
2021/06/03 08:28:57;;;;;;;5.00;1.10;;;;;;;;;;8321188;28;20470;-66
2021/06/03 08:33:05;;;;;;;4.00;1.20;;;;;;;;;;8321493;28;20354;-67
2021/06/03 08:37:09;;;;;;;3.58;0.90;;;;;;;;;;8324794;28;20070;-66
2021/06/03 08:41:15;;;;;;;1.40;1.02;;;;;;;;;;8326122;28;20371;-67
2021/06/03 08:45:24;;;;;;;3.45;1.15;;;;;;;;;;8322668;28;20450;-67
2021/06/03 08:49:29;;;;;;;3.58;1.08;;;;;;;;;;8322840;28;20350;-67
2021/06/03 08:53:34;;;;;;;2.20;0.80;;;;;;;;;;8322876;28;20458;-70
2021/06/03 08:57:39;;;;;;;2.58;1.00;;;;;;;;;;8322997;28;20400;-66
2021/06/03 09:01:44;;;;;;;2.17;1.27;;;;;;;;;;8322963;28;20343;-66
2021/06/03 09:05:49;;;;;;;3.65;1.00;;;;;;;;;;8320653;28;20044;-66
2021/06/03 09:09:55;;;;;;;1.33;0.93;;;;;;;;;;8322151;28;20374;-67
2021/06/03 09:14:04;;;;;;;1.00;0.88;;;;;;;;;;8322489;28;20382;-68
2021/06/03 09:18:09;;;;;;;4.82;0.98;;;;;;;;;;8323259;28;20370;-66
2021/06/03 09:22:13;;;;;;;1.35;0.85;;;;;;;;;;8304180;28;20459;-66
2021/06/03 09:26:18;;;;;;;10.48;1.15;;;;;;;;;;8323236;28;20060;-67
2021/06/03 09:30:23;;;;;;;3.60;0.85;;;;;;;;;;8322257;28;20052;-66
2021/06/03 09:34:28;;;;;;;1.67;1.00;;;;;;;;;;8327435;28;20376;-66
2021/06/03 09:38:34;;;;;;;5.93;1.60;;;;;;;;;;8328271;28;20332;-66
2021/06/03 09:42:38;;;;;;;4.25;1.10;;;;;;;;;;8328418;28;20489;-67
2021/06/03 09:46:50;;;;;;;1.58;1.00;;;;;;;;;;8328013;28;20340;-67
2021/06/03 09:51:27;;;;;;;9.35;1.50;;;;;;;;;;8328825;28;20165;-67
2021/06/03 09:55:31;;;;;;;;;;;;;;;;;;8328942;28;20040;-67
2021/06/03 09:59:40;;;;;;;3.90;0.90;;;;;;;;;;8329097;28;20344;-66
2021/06/03 10:03:51;;;;;;;2.15;0.95;;;;;;;;;;8329478;28;20355;-66
2021/06/03 10:08:05;;;;;;;7.57;1.15;;;;;;;;;;8328083;28;20343;-66
2021/06/03 10:12:23;;;;;;;5.75;1.33;;;;;;;;;;8327229;28;20371;-67
2021/06/03 10:16:32;;;;;;;3.55;1.50;;;;;;;;;;8327010;28;20051;-67
2021/06/03 10:20:44;;;;;;;1.63;0.95;;;;;;;;;;8326688;28;20347;-66
2021/06/03 10:25:18;;;;;;;1.80;1.08;;;;;;;;;;8326308;28;20482;-67
2021/06/03 10:29:23;;;;;;;2.55;1.40;;;;;;;;;;8328582;28;20470;-66
2021/06/03 10:33:31;;;;;;;3.13;1.13;;;;;;;;;;8326405;28;20357;-67
2021/06/03 10:37:38;;;;;;;4.38;1.20;;;;;;;;;;8327729;28;20580;-66
2021/06/03 10:41:42;;;;;;;6.97;1.30;;;;;;;;;;8325801;28;20445;-66
2021/06/03 10:45:47;;;;;;;4.72;1.77;;;;;;;;;;8324614;28;20402;-66
2021/06/03 10:49:53;;;;;;;3.97;1.10;;;;;;;;;;8326529;28;20402;-67
2021/06/03 10:53:58;;;;;;;2.25;1.10;;;;;;;;;;8325024;28;20387;-67
2021/06/03 10:58:06;;;;;;;4.88;2.65;;;;;;;;;;8326790;28;20052;-67
2021/06/03 11:02:13;;;;;;;3.08;1.15;;;;;;;;;;8325075;28;20070;-66
2021/06/03 11:06:27;;;;;;;2.55;1.50;;;;;;;;;;8325359;28;20465;-67
2021/06/03 11:10:32;;;;;;;8.68;1.33;;;;;;;;;;8328101;28;20040;-66
2021/06/03 11:15:10;;;;;;;2.00;1.10;;;;;;;;;;8324903;28;20355;-66
2021/06/03 11:19:18;;;;;;;3.20;1.17;;;;;;;;;;8324557;28;20414;-67
2021/06/03 11:23:35;;;;;;;2.13;1.25;;;;;;;;;;8326766;28;20421;-66
2021/06/03 11:27:40;;;;;;;2.42;1.10;;;;;;;;;;8325491;28;20513;-65
2021/06/03 11:32:06;;;;;;;4.97;1.33;;;;;;;;;;8324128;28;20495;-66
2021/06/03 11:36:30;;;;;;;8.65;1.20;;;;;;;;;;8323229;28;20482;-66
2021/06/03 11:40:42;;;;;;;1.83;1.38;;;;;;;;;;8324843;28;20549;-66
2021/06/03 11:45:03;;;;;;;4.15;1.40;;;;;;;;;;8324662;28;20417;-67
2021/06/03 11:49:40;;;;;;;1.95;1.20;;;;;;;;;;8324756;28;20470;-65
2021/06/03 11:53:48;;;;;;;;;;;;;;;;;;8324090;28;20363;-66
2021/06/03 11:58:13;;;;;;;2.95;1.50;;;;;;;;;;8324211;28;20354;-65
2021/06/03 12:02:32;;;;;;;3.35;1.35;;;;;;;;;;8323498;28;20466;-66
2021/06/03 12:06:40;;;;;;;5.05;1.52;;;;;;;;;;8324884;28;20052;-66
2021/06/03 12:10:44;;;;;;;;;;;;;;;;;;8324809;28;20048;-66
2021/06/03 12:14:48;;;;;;;3.75;1.10;;;;;;;;;;8323193;28;20301;-65
2021/06/03 12:18:53;;;;;;;4.18;1.45;;;;;;;;;;8324003;28;20466;-65
2021/06/03 12:23:12;;;;;;;3.97;1.38;;;;;;;;;;8323256;28;20132;-65
2021/06/03 12:27:35;;;;;;;6.13;2.75;;;;;;;;;;8322588;28;20463;-67
2021/06/03 12:31:40;;;;;;;2.75;1.35;;;;;;;;;;8323392;28;20060;-66
2021/06/03 12:35:50;;;;;;;1.63;0.90;;;;;;;;;;8322817;28;20383;-66
2021/06/03 12:39:56;;;;;;;2.78;1.30;;;;;;;;;;8323792;28;20512;-66
2021/06/03 12:44:11;;;;;;;7.30;1.50;;;;;;;;;;8322521;28;20047;-66
2021/06/03 12:48:17;;;;;;;3.40;1.40;;;;;;;;;;8322562;28;20481;-65
2021/06/03 12:52:28;;;;;;;5.28;1.50;;;;;;;;;;8324461;28;20471;-66
2021/06/03 12:56:33;;;;;;;3.80;1.45;;;;;;;;;;8324027;28;20481;-66
2021/06/03 13:00:40;;;;;;;2.22;1.02;;;;;;;;;;8324461;28;20141;-66
2021/06/03 13:04:51;;;;;;;2.08;0.93;;;;;;;;;;8322797;28;20463;-66
2021/06/03 13:09:00;;;;;;;3.55;1.63;;;;;;;;;;8329030;28;20401;-66
2021/06/03 13:13:10;;;;;;;1.98;1.20;;;;;;;;;;8330112;28;20470;-67
2021/06/03 13:17:18;;;;;;;1.67;1.10;;;;;;;;;;8326816;28;20466;-66
2021/06/03 13:21:23;;;;;;;2.60;2.10;;;;;;;;;;8329113;28;20466;-65
2021/06/03 13:25:30;;;;;;;4.15;1.40;;;;;;;;;;8328347;28;20355;-66
2021/06/03 13:29:50;;;;;;;7.68;2.08;;;;;;;;;;8330328;28;21128;-65
2021/06/03 13:33:55;;;;;;;4.72;1.40;;;;;;;;;;8328104;28;20493;-66
2021/06/03 13:38:02;;;;;;;1.42;1.00;;;;;;;;;;8329939;28;20479;-65
2021/06/03 13:42:18;;;;;;;2.38;1.25;;;;;;;;;;8330915;28;20401;-65
2021/06/03 13:46:46;;;;;;;1.40;0.98;;;;;;;;;;8328612;28;20472;-66
2021/06/03 13:51:03;;;;;;;3.70;1.52;;;;;;;;;;8329025;28;20364;-65
2021/06/03 13:55:22;;;;;;;2.30;1.35;;;;;;;;;;8327641;28;20356;-66
2021/06/03 13:59:27;;;;;;;2.53;1.20;;;;;;;;;;8330019;28;20371;-66
2021/06/03 14:03:48;;;;;;;2.38;1.33;;;;;;;;;;8327691;28;20477;-66
2021/06/03 14:08:19;;;;;;;4.18;1.42;;;;;;;;;;8327173;28;20367;-66
2021/06/03 14:12:36;;;;;;;3.33;1.23;;;;;;;;;;8322207;28;20047;-65
2021/06/03 14:16:54;;;;;;;2.35;1.15;;;;;;;;;;8326713;28;20478;-65
2021/06/03 14:21:09;;;;;;;2.50;1.25;;;;;;;;;;8327982;28;20439;-65
2021/06/03 14:25:16;;;;;;;6.60;1.60;;;;;;;;;;8327369;28;20431;-66
2021/06/03 14:29:21;;;;;;;3.45;1.23;;;;;;;;;;8328760;28;20473;-66
2021/06/03 14:33:26;;;;;;;2.55;1.25;;;;;;;;;;8325224;28;20490;-66
2021/06/03 14:37:31;;;;;;;1.58;1.23;;;;;;;;;;8325847;28;20056;-66
2021/06/03 14:41:45;;;;;;;2.47;1.05;;;;;;;;;;8326646;28;20048;-65
2021/06/03 14:46:13;;;;;;;2.95;1.30;;;;;;;;;;8326913;28;20588;-65
2021/06/03 14:50:33;;;;;;;1.77;1.23;;;;;;;;;;8327109;28;20398;-65
2021/06/03 14:54:37;;;;;;;4.63;1.63;;;;;;;;;;8326816;28;20454;-66
2021/06/03 14:58:42;;;;;;;4.13;1.55;;;;;;;;;;8326263;28;20371;-65
2021/06/03 15:02:49;;;;;;;2.78;1.67;;;;;;;;;;8325487;28;20479;-65
2021/06/03 15:06:55;;;;;;;2.00;1.27;;;;;;;;;;8325740;28;20472;-65
2021/06/03 15:11:01;;;;;;;3.28;1.42;;;;;;;;;;8325665;28;20359;-65
2021/06/03 15:15:10;;;;;;;4.32;1.40;;;;;;;;;;8326800;28;20351;-66
2021/06/03 15:19:15;;;;;;;4.25;1.73;;;;;;;;;;8325059;28;20477;-65
2021/06/03 15:23:24;;;;;;;1.33;1.20;;;;;;;;;;8326051;28;20383;-66
2021/06/03 15:27:29;;;;;;;2.85;1.00;;;;;;;;;;8325562;28;20471;-65
2021/06/03 15:31:34;;;;;;;3.08;1.02;;;;;;;;;;8324976;28;20370;-65
2021/06/03 15:35:43;;;;;;;4.38;1.17;;;;;;;;;;8324814;28;20359;-65
2021/06/03 15:39:47;;;;;;;2.53;0.90;;;;;;;;;;8325481;28;20455;-65
2021/06/03 15:43:53;;;;;;;3.72;1.02;;;;;;;;;;8326262;28;20052;-65
2021/06/03 15:47:58;;;;;;;4.60;1.92;;;;;;;;;;8323663;28;20378;-66
2021/06/03 15:52:07;;;;;;;2.45;1.20;;;;;;;;;;8325748;28;20040;-65
2021/06/03 15:56:12;;;;;;;5.10;1.20;;;;;;;;;;8325872;28;20513;-65
2021/06/03 16:00:21;;;;;;;2.08;1.20;;;;;;;;;;8325583;28;20367;-66
2021/06/03 16:04:25;;;;;;;2.63;1.73;;;;;;;;;;8322894;28;20439;-66
2021/06/03 16:08:30;;;;;;;2.08;1.10;;;;;;;;;;8324005;28;20401;-66
2021/06/03 16:12:35;;;;;;;1.90;1.02;;;;;;;;;;8324781;28;20455;-66
2021/06/03 16:16:40;;;;;;;5.13;1.33;;;;;;;;;;8320790;28;20471;-66
2021/06/03 16:20:46;;;;;;;2.30;1.10;;;;;;;;;;8323532;28;20044;-65
2021/06/03 16:24:51;;;;;;;3.35;1.05;;;;;;;;;;8321405;28;20352;-65
2021/06/03 16:28:57;;;;;;;4.35;1.80;;;;;;;;;;8322563;28;20355;-66
2021/06/03 16:33:19;;;;;;;1.50;1.10;;;;;;;;;;8323095;28;20052;-65
2021/06/03 16:37:42;;;;;;;2.25;1.45;;;;;;;;;;8323729;28;20066;-66
2021/06/03 16:41:47;;;;;;;3.85;1.80;;;;;;;;;;8325275;28;20354;-65
2021/06/03 16:45:54;;;;;;;6.68;1.73;;;;;;;;;;8323044;28;20370;-65
2021/06/03 16:49:59;;;;;;;3.97;1.10;;;;;;;;;;8322572;28;20051;-66
2021/06/03 16:54:04;;;;;;;3.65;1.45;;;;;;;;;;8324610;28;20395;-65
2021/06/03 16:58:10;;;;;;;5.22;1.77;;;;;;;;;;8322331;28;20402;-65
2021/06/03 17:02:16;;;;;;;16.77;13.07;;;;;;;;;;8323708;28;20044;-65
2021/06/03 17:06:21;;;;;;;4.00;2.60;;;;;;;;;;8321745;28;20352;-65
2021/06/03 17:10:29;;;;;;;3.42;1.85;;;;;;;;;;8337988;28;20378;-65
2021/06/03 17:14:33;;;;;;;3.33;2.35;;;;;;;;;;8322719;28;20447;-66
2021/06/03 17:18:38;;;;;;;6.00;2.55;;;;;;;;;;8322649;28;20063;-65
2021/06/03 17:22:43;;;;;;;33.33;16.88;;;;;;;;;;8322196;28;20455;-66
2021/06/03 17:26:48;;;;;;;11.20;5.35;;;;;;;;;;8321469;28;20580;-65
2021/06/03 17:30:58;;;;;;;7.97;3.22;;;;;;;;;;8322624;28;20340;-65
2021/06/03 17:35:04;;;;;;;4.38;2.40;;;;;;;;;;8323614;28;20475;-66
2021/06/03 17:39:09;;;;;;;6.75;3.92;;;;;;;;;;8321324;28;20040;-64
2021/06/03 17:43:16;;;;;;;16.33;7.85;;;;;;;;;;8321732;28;20109;-65
2021/06/03 17:47:21;;;;;;;23.77;14.07;;;;;;;;;;8321203;28;20074;-66
2021/06/03 17:51:25;;;;;;;16.20;9.93;;;;;;;;;;8303505;28;20405;-65
2021/06/03 17:55:31;;;;;;;14.75;8.23;;;;;;;;;;8326884;28;20492;-64
2021/06/03 17:59:36;;;;;;;9.48;4.20;;;;;;;;;;8327191;28;20352;-65
2021/06/03 18:03:41;;;;;;;22.88;7.80;;;;;;;;;;8325338;28;20463;-65
2021/06/03 18:07:47;;;;;;;9.23;5.00;;;;;;;;;;8325837;28;20070;-65
2021/06/03 18:11:53;;;;;;;11.85;4.32;;;;;;;;;;8327682;28;20462;-65
2021/06/03 18:15:58;;;;;;;86.13;28.20;;;;;;;;;;8327458;28;20358;-66
2021/06/03 18:20:09;;;;;;;34.45;19.88;;;;;;;;;;8325696;28;20098;-65
2021/06/03 18:24:13;;;;;;;28.95;16.23;;;;;;;;;;8326611;28;20435;-65
2021/06/03 18:28:18;;;;;;;27.75;13.73;;;;;;;;;;8326818;28;20438;-65
2021/06/03 18:32:25;;;;;;;52.67;26.67;;;;;;;;;;8325593;28;20451;-65
2021/06/03 18:36:32;;;;;;;40.97;22.08;;;;;;;;;;8326494;28;20344;-65
2021/06/03 18:40:37;;;;;;;32.95;16.25;;;;;;;;;;8326789;28;20457;-66
2021/06/03 18:44:44;;;;;;;34.67;19.60;;;;;;;;;;8309694;28;20340;-65
2021/06/03 18:48:49;;;;;;;31.35;17.05;;;;;;;;;;8325932;28;20469;-64
2021/06/03 18:52:55;;;;;;;13.65;8.63;;;;;;;;;;8328735;28;20459;-66
2021/06/03 18:57:01;;;;;;;12.93;9.52;;;;;;;;;;8327901;28;20470;-67
2021/06/03 19:01:07;;;;;;;9.60;6.95;;;;;;;;;;8324824;28;20470;-66
2021/06/03 19:05:13;;;;;;;5.60;4.22;;;;;;;;;;8325679;28;20500;-66
2021/06/03 19:09:18;;;;;;;6.60;3.38;;;;;;;;;;8323911;28;20066;-66
2021/06/03 19:13:23;;;;;;;11.55;3.10;;;;;;;;;;8324764;28;20489;-66
2021/06/03 19:17:29;;;;;;;6.97;4.03;;;;;;;;;;8325485;28;20358;-66
2021/06/03 19:21:37;;;;;;;14.55;7.00;;;;;;;;;;8323944;28;20382;-66
2021/06/03 19:25:43;;;;;;;30.60;14.35;;;;;;;;;;8324860;28;20490;-66
2021/06/03 19:29:47;;;;;;;39.00;18.48;;;;;;;;;;8324089;28;20352;-66
2021/06/03 19:33:53;;;;;;;39.72;17.77;;;;;;;;;;8324472;28;20408;-67
2021/06/03 19:38:02;;;;;;;39.05;16.20;;;;;;;;;;8323793;28;20071;-66
2021/06/03 19:42:09;;;;;;;28.17;11.63;;;;;;;;;;8325210;28;20056;-66
2021/06/03 19:46:14;;;;;;;16.27;4.88;;;;;;;;;;8325398;28;20505;-66
2021/06/03 19:50:30;;;;;;;14.23;5.05;;;;;;;;;;8324667;28;20482;-66
2021/06/03 20:00:57;;;;;;;9.38;5.60;;;;;;;;;;8329350;28;20305;-67
2021/06/03 20:05:01;;;;;;;12.98;6.00;;;;;;;;;;8324181;28;20467;-66
2021/06/03 20:09:07;;;;;;;14.77;6.30;;;;;;;;;;8326610;28;20370;-66
2021/06/03 20:13:13;;;;;;;11.82;6.20;;;;;;;;;;8325758;28;20458;-66
2021/06/03 20:17:17;;;;;;;13.45;6.43;;;;;;;;;;8323104;28;20383;-66
2021/06/03 20:21:21;;;;;;;11.93;6.60;;;;;;;;;;8325892;28;20383;-66
2021/06/03 20:25:31;;;;;;;17.27;8.13;;;;;;;;;;8325080;28;20475;-66
2021/06/03 20:29:35;;;;;;;20.15;10.57;;;;;;;;;;8324865;28;21040;-66
2021/06/03 20:33:40;;;;;;;12.90;7.45;;;;;;;;;;8324239;28;20351;-66
2021/06/03 20:37:46;;;;;;;13.40;6.05;;;;;;;;;;8324645;28;20363;-65
2021/06/03 20:41:53;;;;;;;8.98;4.75;;;;;;;;;;8323118;28;20342;-66
2021/06/03 20:46:00;;;;;;;6.90;3.80;;;;;;;;;;8323843;28;20354;-66
2021/06/03 20:50:06;;;;;;;8.50;5.43;;;;;;;;;;8323380;28;20418;-67
2021/06/03 20:54:13;;;;;;;10.68;7.00;;;;;;;;;;8321944;28;20467;-66
2021/06/03 20:58:19;;;;;;;8.83;5.63;;;;;;;;;;8322142;28;20052;-65
2021/06/03 21:02:24;;;;;;;10.38;5.75;;;;;;;;;;8323781;28;20789;-66
2021/06/03 21:06:29;;;;;;;8.70;5.30;;;;;;;;;;8321109;28;20074;-66
2021/06/03 21:10:45;;;;;;;7.90;4.70;;;;;;;;;;8323200;28;20483;-67
2021/06/03 21:14:51;;;;;;;10.75;5.13;;;;;;;;;;8337280;28;20455;-66
2021/06/03 21:18:56;;;;;;;10.93;6.13;;;;;;;;;;8324302;28;20483;-66
2021/06/03 21:23:01;;;;;;;12.82;6.03;;;;;;;;;;8323672;28;20467;-67
2021/06/03 21:27:08;;;;;;;14.07;5.25;;;;;;;;;;8326783;28;20370;-66
2021/06/03 21:31:13;;;;;;;11.52;5.93;;;;;;;;;;8329896;28;20470;-66
2021/06/03 21:35:19;;;;;;;14.90;5.50;;;;;;;;;;8330072;28;20362;-66
2021/06/03 21:39:24;;;;;;;9.27;4.43;;;;;;;;;;8328578;28;20472;-65
2021/06/03 21:43:36;;;;;;;8.95;4.70;;;;;;;;;;8327144;28;20370;-66
2021/06/03 21:47:42;;;;;;;7.97;4.00;;;;;;;;;;8328260;28;20478;-66
2021/06/03 21:51:50;;;;;;;11.10;4.00;;;;;;;;;;8344439;28;20373;-65
2021/06/03 21:55:56;;;;;;;9.40;4.05;;;;;;;;;;8329019;28;20443;-65
2021/06/03 22:00:01;;;;;;;7.82;3.65;;;;;;;;;;8327372;28;20447;-65
2021/06/03 22:04:13;;;;;;;7.97;3.88;;;;;;;;;;8342688;28;20496;-65
2021/06/03 22:08:21;;;;;;;8.33;4.13;;;;;;;;;;8326358;28;20040;-66
2021/06/03 22:12:25;;;;;;;6.20;3.65;;;;;;;;;;8328714;28;20431;-66
2021/06/03 22:16:38;;;;;;;8.15;4.05;;;;;;;;;;8325007;28;20070;-66
2021/06/03 22:20:44;;;;;;;14.40;5.10;;;;;;;;;;8329220;28;20544;-65
2021/06/03 22:24:49;;;;;;;9.98;4.50;;;;;;;;;;8327295;28;20420;-66
2021/06/03 22:28:54;;;;;;;10.32;4.75;;;;;;;;;;8327723;28;20470;-65
2021/06/03 22:33:02;;;;;;;5.85;3.83;;;;;;;;;;8326677;28;20496;-66
2021/06/03 22:37:07;;;;;;;8.85;4.80;;;;;;;;;;8326445;28;20496;-66
2021/06/03 22:41:19;;;;;;;12.40;4.72;;;;;;;;;;8344928;28;20466;-65
2021/06/03 22:45:31;;;;;;;7.82;4.72;;;;;;;;;;8328054;28;20355;-65
2021/06/03 22:49:36;;;;;;;8.05;4.65;;;;;;;;;;8327902;28;20467;-66
2021/06/03 22:53:52;;;;;;;14.23;5.72;;;;;;;;;;8328154;28;20473;-65
2021/06/03 22:57:58;;;;;;;11.57;4.70;;;;;;;;;;8341347;28;20371;-66
2021/06/03 23:02:01;;;;;;;13.18;6.00;;;;;;;;;;8326063;28;20355;-66
2021/06/03 23:06:10;;;;;;;10.02;5.18;;;;;;;;;;8325709;28;20466;-66
2021/06/03 23:10:18;;;;;;;8.52;5.43;;;;;;;;;;8325749;28;20463;-66
2021/06/03 23:14:28;;;;;;;8.00;4.80;;;;;;;;;;8325716;28;20458;-66
2021/06/03 23:18:34;;;;;;;7.43;4.45;;;;;;;;;;8325514;28;20470;-67
2021/06/03 23:22:39;;;;;;;10.77;5.10;;;;;;;;;;8325404;28;20443;-66
2021/06/03 23:26:44;;;;;;;7.43;5.05;;;;;;;;;;8326763;28;20482;-66
2021/06/03 23:30:50;;;;;;;8.88;4.97;;;;;;;;;;8326172;28;20478;-66
2021/06/03 23:34:55;;;;;;;8.77;5.50;;;;;;;;;;8325144;28;20377;-65
2021/06/03 23:39:00;;;;;;;10.93;4.28;;;;;;;;;;8325890;28;20494;-65
2021/06/03 23:43:06;;;;;;;10.70;4.78;;;;;;;;;;8323897;28;20467;-66
2021/06/03 23:47:11;;;;;;;10.40;4.85;;;;;;;;;;8324446;28;20373;-66
2021/06/03 23:51:17;;;;;;;7.47;4.60;;;;;;;;;;8325164;28;20386;-65
2021/06/03 23:55:26;;;;;;;8.82;4.80;;;;;;;;;;8324731;28;20466;-65
2021/06/03 23:59:31;;;;;;;9.55;4.72;;;;;;;;;;8325875;28;20447;-66
